sensor_id;sensor_type;location;lat;lon;timestamp;pressure;altitude;pressure_sealevel;temperature
5571;BMP180;2808;51.240;6.794;2023-11-19T00:00:57;100433.00;;;10.10
5571;BMP180;2808;51.240;6.794;2023-11-19T00:03:43;100438.00;;;10.10
5571;BMP180;2808;51.240;6.794;2023-11-19T00:06:22;100435.00;;;10.20
5571;BMP180;2808;51.240;6.794;2023-11-19T00:08:56;100435.00;;;10.20
5571;BMP180;2808;51.240;6.794;2023-11-19T00:11:25;100447.00;;;10.30
5571;BMP180;2808;51.240;6.794;2023-11-19T00:13:56;100471.00;;;10.30
5571;BMP180;2808;51.240;6.794;2023-11-19T00:16:27;100487.00;;;10.30
5571;BMP180;2808;51.240;6.794;2023-11-19T00:19:00;100495.00;;;10.30
5571;BMP180;2808;51.240;6.794;2023-11-19T00:21:37;100493.00;;;10.30
5571;BMP180;2808;51.240;6.794;2023-11-19T00:24:09;100496.00;;;10.40
5571;BMP180;2808;51.240;6.794;2023-11-19T00:26:47;100489.00;;;10.30
5571;BMP180;2808;51.240;6.794;2023-11-19T00:29:22;100474.00;;;10.30
5571;BMP180;2808;51.240;6.794;2023-11-19T00:31:53;100480.00;;;10.40
5571;BMP180;2808;51.240;6.794;2023-11-19T00:34:33;100480.00;;;10.40
5571;BMP180;2808;51.240;6.794;2023-11-19T00:37:09;100483.00;;;10.40
5571;BMP180;2808;51.240;6.794;2023-11-19T00:39:50;100476.00;;;10.50
5571;BMP180;2808;51.240;6.794;2023-11-19T00:42:24;100470.00;;;10.50
5571;BMP180;2808;51.240;6.794;2023-11-19T00:45:00;100469.00;;;10.50
5571;BMP180;2808;51.240;6.794;2023-11-19T00:47:38;100469.00;;;10.60
5571;BMP180;2808;51.240;6.794;2023-11-19T00:50:10;100463.00;;;10.60
5571;BMP180;2808;51.240;6.794;2023-11-19T00:52:41;100457.00;;;10.70
5571;BMP180;2808;51.240;6.794;2023-11-19T00:55:15;100470.00;;;10.80
5571;BMP180;2808;51.240;6.794;2023-11-19T00:57:55;100460.00;;;10.80
5571;BMP180;2808;51.240;6.794;2023-11-19T01:00:33;100458.00;;;11.00
5571;BMP180;2808;51.240;6.794;2023-11-19T01:03:09;100463.00;;;11.10
5571;BMP180;2808;51.240;6.794;2023-11-19T01:05:41;100452.00;;;11.00
5571;BMP180;2808;51.240;6.794;2023-11-19T01:08:17;100448.00;;;11.10
5571;BMP180;2808;51.240;6.794;2023-11-19T01:10:52;100454.00;;;11.20
5571;BMP180;2808;51.240;6.794;2023-11-19T01:13:38;100447.00;;;11.30
5571;BMP180;2808;51.240;6.794;2023-11-19T01:16:25;100453.00;;;11.30
5571;BMP180;2808;51.240;6.794;2023-11-19T01:19:00;100451.00;;;11.40
5571;BMP180;2808;51.240;6.794;2023-11-19T01:21:34;100435.00;;;11.50
5571;BMP180;2808;51.240;6.794;2023-11-19T01:24:13;100434.00;;;11.50
5571;BMP180;2808;51.240;6.794;2023-11-19T01:26:44;100436.00;;;11.60
5571;BMP180;2808;51.240;6.794;2023-11-19T01:29:29;100432.00;;;11.60
5571;BMP180;2808;51.240;6.794;2023-11-19T01:32:00;100439.00;;;11.60
5571;BMP180;2808;51.240;6.794;2023-11-19T01:34:42;100448.00;;;11.60
5571;BMP180;2808;51.240;6.794;2023-11-19T01:37:13;100446.00;;;11.60
5571;BMP180;2808;51.240;6.794;2023-11-19T01:39:43;100441.00;;;11.70
5571;BMP180;2808;51.240;6.794;2023-11-19T01:42:26;100449.00;;;11.70
5571;BMP180;2808;51.240;6.794;2023-11-19T01:45:01;100448.00;;;11.70
5571;BMP180;2808;51.240;6.794;2023-11-19T01:47:40;100442.00;;;11.70
5571;BMP180;2808;51.240;6.794;2023-11-19T01:50:29;100432.00;;;11.70
5571;BMP180;2808;51.240;6.794;2023-11-19T01:52:58;100432.00;;;11.70
5571;BMP180;2808;51.240;6.794;2023-11-19T01:55:36;100451.00;;;11.70
5571;BMP180;2808;51.240;6.794;2023-11-19T01:58:08;100452.00;;;11.70
5571;BMP180;2808;51.240;6.794;2023-11-19T02:00:51;100441.00;;;11.80
5571;BMP180;2808;51.240;6.794;2023-11-19T02:03:25;100447.00;;;11.80
5571;BMP180;2808;51.240;6.794;2023-11-19T02:06:00;100449.00;;;11.80
5571;BMP180;2808;51.240;6.794;2023-11-19T02:08:32;100443.00;;;11.80
5571;BMP180;2808;51.240;6.794;2023-11-19T02:11:09;100447.00;;;11.80
5571;BMP180;2808;51.240;6.794;2023-11-19T02:13:43;100431.00;;;11.80
5571;BMP180;2808;51.240;6.794;2023-11-19T02:16:20;100417.00;;;11.80
5571;BMP180;2808;51.240;6.794;2023-11-19T02:18:56;100412.00;;;11.80
5571;BMP180;2808;51.240;6.794;2023-11-19T02:21:43;100390.00;;;11.80
5571;BMP180;2808;51.240;6.794;2023-11-19T02:24:24;100380.00;;;11.80
5571;BMP180;2808;51.240;6.794;2023-11-19T02:27:04;100377.00;;;11.80
5571;BMP180;2808;51.240;6.794;2023-11-19T02:29:44;100372.00;;;11.80
5571;BMP180;2808;51.240;6.794;2023-11-19T02:32:21;100378.00;;;11.80
5571;BMP180;2808;51.240;6.794;2023-11-19T02:34:58;100381.00;;;11.80
5571;BMP180;2808;51.240;6.794;2023-11-19T02:37:49;100378.00;;;11.80
5571;BMP180;2808;51.240;6.794;2023-11-19T02:40:21;100380.00;;;11.80
5571;BMP180;2808;51.240;6.794;2023-11-19T02:43:01;100382.00;;;11.80
5571;BMP180;2808;51.240;6.794;2023-11-19T02:45:49;100374.00;;;11.80
5571;BMP180;2808;51.240;6.794;2023-11-19T02:48:32;100379.00;;;11.90
5571;BMP180;2808;51.240;6.794;2023-11-19T02:51:04;100372.00;;;11.90
5571;BMP180;2808;51.240;6.794;2023-11-19T02:53:39;100397.00;;;11.90
5571;BMP180;2808;51.240;6.794;2023-11-19T02:56:10;100383.00;;;11.90
5571;BMP180;2808;51.240;6.794;2023-11-19T02:58:51;100386.00;;;11.90
5571;BMP180;2808;51.240;6.794;2023-11-19T03:01:27;100379.00;;;12.00
5571;BMP180;2808;51.240;6.794;2023-11-19T03:04:02;100388.00;;;11.90
5571;BMP180;2808;51.240;6.794;2023-11-19T03:09:30;100368.00;;;11.90
5571;BMP180;2808;51.240;6.794;2023-11-19T03:12:06;100362.00;;;11.80
5571;BMP180;2808;51.240;6.794;2023-11-19T03:14:34;100354.00;;;11.80
5571;BMP180;2808;51.240;6.794;2023-11-19T03:17:06;100355.00;;;11.90
5571;BMP180;2808;51.240;6.794;2023-11-19T03:19:45;100350.00;;;11.90
5571;BMP180;2808;51.240;6.794;2023-11-19T03:22:18;100355.00;;;11.90
5571;BMP180;2808;51.240;6.794;2023-11-19T03:25:02;100357.00;;;11.90
5571;BMP180;2808;51.240;6.794;2023-11-19T03:27:56;100357.00;;;11.90
5571;BMP180;2808;51.240;6.794;2023-11-19T03:30:36;100358.00;;;11.90
5571;BMP180;2808;51.240;6.794;2023-11-19T03:33:12;100355.00;;;12.00
5571;BMP180;2808;51.240;6.794;2023-11-19T03:35:45;100357.00;;;12.00
5571;BMP180;2808;51.240;6.794;2023-11-19T03:38:33;100369.00;;;12.00
5571;BMP180;2808;51.240;6.794;2023-11-19T03:41:13;100366.00;;;12.10
5571;BMP180;2808;51.240;6.794;2023-11-19T03:43:54;100378.00;;;12.10
5571;BMP180;2808;51.240;6.794;2023-11-19T03:46:27;100375.00;;;12.00
5571;BMP180;2808;51.240;6.794;2023-11-19T03:49:00;100366.00;;;12.00
5571;BMP180;2808;51.240;6.794;2023-11-19T03:51:43;100361.00;;;12.10
5571;BMP180;2808;51.240;6.794;2023-11-19T03:54:19;100373.00;;;12.00
5571;BMP180;2808;51.240;6.794;2023-11-19T03:57:01;100377.00;;;12.00
5571;BMP180;2808;51.240;6.794;2023-11-19T03:59:49;100386.00;;;12.00
5571;BMP180;2808;51.240;6.794;2023-11-19T04:02:36;100393.00;;;12.10
5571;BMP180;2808;51.240;6.794;2023-11-19T04:05:20;100387.00;;;12.10
5571;BMP180;2808;51.240;6.794;2023-11-19T04:07:58;100392.00;;;12.10
5571;BMP180;2808;51.240;6.794;2023-11-19T04:10:28;100386.00;;;12.10
5571;BMP180;2808;51.240;6.794;2023-11-19T04:13:01;100381.00;;;12.00
5571;BMP180;2808;51.240;6.794;2023-11-19T04:15:33;100370.00;;;12.00
5571;BMP180;2808;51.240;6.794;2023-11-19T04:18:03;100363.00;;;12.00
5571;BMP180;2808;51.240;6.794;2023-11-19T04:20:44;100371.00;;;11.90
5571;BMP180;2808;51.240;6.794;2023-11-19T04:23:17;100370.00;;;11.90
5571;BMP180;2808;51.240;6.794;2023-11-19T04:25:56;100380.00;;;11.80
5571;BMP180;2808;51.240;6.794;2023-11-19T04:28:37;100383.00;;;11.80
5571;BMP180;2808;51.240;6.794;2023-11-19T04:31:26;100384.00;;;11.80
5571;BMP180;2808;51.240;6.794;2023-11-19T04:34:11;100389.00;;;11.90
5571;BMP180;2808;51.240;6.794;2023-11-19T04:36:58;100396.00;;;11.90
5571;BMP180;2808;51.240;6.794;2023-11-19T04:39:39;100389.00;;;11.90
5571;BMP180;2808;51.240;6.794;2023-11-19T04:42:19;100377.00;;;11.90
5571;BMP180;2808;51.240;6.794;2023-11-19T04:44:52;100386.00;;;11.90
5571;BMP180;2808;51.240;6.794;2023-11-19T04:48:00;100396.00;;;11.90
5571;BMP180;2808;51.240;6.794;2023-11-19T04:50:34;100375.00;;;11.80
5571;BMP180;2808;51.240;6.794;2023-11-19T04:53:10;100391.00;;;11.80
5571;BMP180;2808;51.240;6.794;2023-11-19T04:55:45;100389.00;;;11.80
5571;BMP180;2808;51.240;6.794;2023-11-19T04:58:29;100387.00;;;11.80
5571;BMP180;2808;51.240;6.794;2023-11-19T05:01:16;100385.00;;;11.80
5571;BMP180;2808;51.240;6.794;2023-11-19T05:03:49;100397.00;;;11.80
5571;BMP180;2808;51.240;6.794;2023-11-19T05:06:35;100397.00;;;11.80
5571;BMP180;2808;51.240;6.794;2023-11-19T05:09:15;100387.00;;;11.80
5571;BMP180;2808;51.240;6.794;2023-11-19T05:11:56;100402.00;;;11.70
5571;BMP180;2808;51.240;6.794;2023-11-19T05:14:34;100388.00;;;11.70
5571;BMP180;2808;51.240;6.794;2023-11-19T05:17:08;100396.00;;;11.60
5571;BMP180;2808;51.240;6.794;2023-11-19T05:19:58;100401.00;;;11.60
5571;BMP180;2808;51.240;6.794;2023-11-19T05:22:42;100401.00;;;11.60
5571;BMP180;2808;51.240;6.794;2023-11-19T05:25:19;100404.00;;;11.50
5571;BMP180;2808;51.240;6.794;2023-11-19T05:28:04;100399.00;;;11.50
5571;BMP180;2808;51.240;6.794;2023-11-19T05:30:52;100406.00;;;11.50
5571;BMP180;2808;51.240;6.794;2023-11-19T05:33:29;100421.00;;;11.40
5571;BMP180;2808;51.240;6.794;2023-11-19T05:36:15;100422.00;;;11.40
5571;BMP180;2808;51.240;6.794;2023-11-19T05:39:05;100417.00;;;11.50
5571;BMP180;2808;51.240;6.794;2023-11-19T05:41:48;100417.00;;;11.50
5571;BMP180;2808;51.240;6.794;2023-11-19T05:44:32;100419.00;;;11.50
5571;BMP180;2808;51.240;6.794;2023-11-19T05:49:56;100412.00;;;11.60
5571;BMP180;2808;51.240;6.794;2023-11-19T05:52:27;100415.00;;;11.60
5571;BMP180;2808;51.240;6.794;2023-11-19T05:55:17;100408.00;;;11.60
5571;BMP180;2808;51.240;6.794;2023-11-19T05:58:06;100418.00;;;11.60
5571;BMP180;2808;51.240;6.794;2023-11-19T06:00:48;100418.00;;;11.60
5571;BMP180;2808;51.240;6.794;2023-11-19T06:03:22;100425.00;;;11.60
5571;BMP180;2808;51.240;6.794;2023-11-19T06:06:00;100431.00;;;11.60
5571;BMP180;2808;51.240;6.794;2023-11-19T06:08:36;100430.00;;;11.50
5571;BMP180;2808;51.240;6.794;2023-11-19T06:11:13;100423.00;;;11.50
5571;BMP180;2808;51.240;6.794;2023-11-19T06:14:20;100435.00;;;11.50
5571;BMP180;2808;51.240;6.794;2023-11-19T06:17:11;100438.00;;;11.50
5571;BMP180;2808;51.240;6.794;2023-11-19T06:19:47;100431.00;;;11.50
5571;BMP180;2808;51.240;6.794;2023-11-19T06:22:31;100429.00;;;11.40
5571;BMP180;2808;51.240;6.794;2023-11-19T06:25:19;100439.00;;;11.40
5571;BMP180;2808;51.240;6.794;2023-11-19T06:28:07;100417.00;;;11.40
5571;BMP180;2808;51.240;6.794;2023-11-19T06:30:53;100420.00;;;11.30
5571;BMP180;2808;51.240;6.794;2023-11-19T06:33:21;100424.00;;;11.30
5571;BMP180;2808;51.240;6.794;2023-11-19T06:35:58;100423.00;;;11.30
5571;BMP180;2808;51.240;6.794;2023-11-19T06:38:41;100420.00;;;11.30
5571;BMP180;2808;51.240;6.794;2023-11-19T06:41:15;100418.00;;;11.30
5571;BMP180;2808;51.240;6.794;2023-11-19T06:43:51;100430.00;;;11.20
5571;BMP180;2808;51.240;6.794;2023-11-19T06:46:23;100431.00;;;11.20
5571;BMP180;2808;51.240;6.794;2023-11-19T06:49:02;100438.00;;;11.20
5571;BMP180;2808;51.240;6.794;2023-11-19T06:51:33;100428.00;;;11.10
5571;BMP180;2808;51.240;6.794;2023-11-19T06:54:09;100441.00;;;11.20
5571;BMP180;2808;51.240;6.794;2023-11-19T06:56:50;100436.00;;;11.20
5571;BMP180;2808;51.240;6.794;2023-11-19T06:59:39;100431.00;;;11.20
5571;BMP180;2808;51.240;6.794;2023-11-19T07:02:30;100430.00;;;11.20
5571;BMP180;2808;51.240;6.794;2023-11-19T07:05:09;100431.00;;;11.20
5571;BMP180;2808;51.240;6.794;2023-11-19T07:07:53;100428.00;;;11.10
5571;BMP180;2808;51.240;6.794;2023-11-19T07:10:35;100434.00;;;11.10
5571;BMP180;2808;51.240;6.794;2023-11-19T07:13:14;100429.00;;;11.10
5571;BMP180;2808;51.240;6.794;2023-11-19T07:16:16;100430.00;;;11.10
5571;BMP180;2808;51.240;6.794;2023-11-19T07:19:04;100441.00;;;11.10
5571;BMP180;2808;51.240;6.794;2023-11-19T07:21:51;100434.00;;;11.10
5571;BMP180;2808;51.240;6.794;2023-11-19T07:24:41;100443.00;;;11.10
5571;BMP180;2808;51.240;6.794;2023-11-19T07:27:19;100444.00;;;11.10
5571;BMP180;2808;51.240;6.794;2023-11-19T07:30:07;100452.00;;;11.20
5571;BMP180;2808;51.240;6.794;2023-11-19T07:33:04;100432.00;;;11.10
5571;BMP180;2808;51.240;6.794;2023-11-19T07:35:57;100450.00;;;11.20
5571;BMP180;2808;51.240;6.794;2023-11-19T07:38:35;100437.00;;;11.20
5571;BMP180;2808;51.240;6.794;2023-11-19T07:41:25;100451.00;;;11.20
5571;BMP180;2808;51.240;6.794;2023-11-19T07:44:10;100467.00;;;11.30
5571;BMP180;2808;51.240;6.794;2023-11-19T07:46:48;100472.00;;;11.30
5571;BMP180;2808;51.240;6.794;2023-11-19T07:49:35;100475.00;;;11.50
5571;BMP180;2808;51.240;6.794;2023-11-19T07:52:23;100477.00;;;11.60
5571;BMP180;2808;51.240;6.794;2023-11-19T07:55:00;100488.00;;;11.70
5571;BMP180;2808;51.240;6.794;2023-11-19T07:57:50;100485.00;;;11.80
5571;BMP180;2808;51.240;6.794;2023-11-19T08:00:40;100498.00;;;11.90
5571;BMP180;2808;51.240;6.794;2023-11-19T08:03:24;100501.00;;;12.00
5571;BMP180;2808;51.240;6.794;2023-11-19T08:05:58;100508.00;;;12.10
5571;BMP180;2808;51.240;6.794;2023-11-19T08:08:36;100520.00;;;12.20
5571;BMP180;2808;51.240;6.794;2023-11-19T08:11:08;100526.00;;;12.30
5571;BMP180;2808;51.240;6.794;2023-11-19T08:13:37;100514.00;;;12.30
5571;BMP180;2808;51.240;6.794;2023-11-19T08:16:08;100521.00;;;12.30
5571;BMP180;2808;51.240;6.794;2023-11-19T08:18:45;100534.00;;;12.40
5571;BMP180;2808;51.240;6.794;2023-11-19T08:21:13;100536.00;;;12.40
5571;BMP180;2808;51.240;6.794;2023-11-19T08:23:56;100541.00;;;12.40
5571;BMP180;2808;51.240;6.794;2023-11-19T08:26:33;100560.00;;;12.40
5571;BMP180;2808;51.240;6.794;2023-11-19T08:29:01;100548.00;;;12.40
5571;BMP180;2808;51.240;6.794;2023-11-19T08:31:32;100535.00;;;12.40
5571;BMP180;2808;51.240;6.794;2023-11-19T08:34:01;100529.00;;;12.40
5571;BMP180;2808;51.240;6.794;2023-11-19T08:36:32;100538.00;;;12.40
5571;BMP180;2808;51.240;6.794;2023-11-19T08:39:05;100528.00;;;12.30
5571;BMP180;2808;51.240;6.794;2023-11-19T08:41:36;100533.00;;;12.30
5571;BMP180;2808;51.240;6.794;2023-11-19T08:44:08;100534.00;;;12.30
5571;BMP180;2808;51.240;6.794;2023-11-19T08:46:36;100526.00;;;12.50
5571;BMP180;2808;51.240;6.794;2023-11-19T08:49:08;100536.00;;;12.60
5571;BMP180;2808;51.240;6.794;2023-11-19T08:51:39;100536.00;;;12.90
5571;BMP180;2808;51.240;6.794;2023-11-19T08:54:15;100535.00;;;13.00
5571;BMP180;2808;51.240;6.794;2023-11-19T08:56:48;100529.00;;;13.10
5571;BMP180;2808;51.240;6.794;2023-11-19T08:59:19;100530.00;;;13.00
5571;BMP180;2808;51.240;6.794;2023-11-19T09:01:48;100541.00;;;13.00
5571;BMP180;2808;51.240;6.794;2023-11-19T09:04:23;100529.00;;;13.10
5571;BMP180;2808;51.240;6.794;2023-11-19T09:07:03;100528.00;;;13.00
5571;BMP180;2808;51.240;6.794;2023-11-19T09:09:33;100520.00;;;13.00
5571;BMP180;2808;51.240;6.794;2023-11-19T09:12:04;100527.00;;;13.20
5571;BMP180;2808;51.240;6.794;2023-11-19T09:14:43;100541.00;;;13.30
5571;BMP180;2808;51.240;6.794;2023-11-19T09:17:34;100532.00;;;13.40
5571;BMP180;2808;51.240;6.794;2023-11-19T09:20:29;100536.00;;;13.50
5571;BMP180;2808;51.240;6.794;2023-11-19T09:23:13;100522.00;;;13.50
5571;BMP180;2808;51.240;6.794;2023-11-19T09:25:56;100535.00;;;13.60
5571;BMP180;2808;51.240;6.794;2023-11-19T09:28:29;100532.00;;;13.60
5571;BMP180;2808;51.240;6.794;2023-11-19T09:31:15;100522.00;;;13.60
5571;BMP180;2808;51.240;6.794;2023-11-19T09:33:54;100531.00;;;13.50
5571;BMP180;2808;51.240;6.794;2023-11-19T09:36:37;100527.00;;;13.40
5571;BMP180;2808;51.240;6.794;2023-11-19T09:39:18;100539.00;;;13.30
5571;BMP180;2808;51.240;6.794;2023-11-19T09:41:54;100542.00;;;13.30
5571;BMP180;2808;51.240;6.794;2023-11-19T09:44:28;100534.00;;;13.30
5571;BMP180;2808;51.240;6.794;2023-11-19T09:46:58;100545.00;;;13.20
5571;BMP180;2808;51.240;6.794;2023-11-19T09:49:33;100552.00;;;13.30
5571;BMP180;2808;51.240;6.794;2023-11-19T09:52:10;100544.00;;;13.40
5571;BMP180;2808;51.240;6.794;2023-11-19T09:54:42;100532.00;;;13.50
5571;BMP180;2808;51.240;6.794;2023-11-19T09:57:13;100532.00;;;13.70
5571;BMP180;2808;51.240;6.794;2023-11-19T09:59:47;100538.00;;;13.80
5571;BMP180;2808;51.240;6.794;2023-11-19T10:02:19;100529.00;;;13.80
5571;BMP180;2808;51.240;6.794;2023-11-19T10:05:02;100530.00;;;13.70
5571;BMP180;2808;51.240;6.794;2023-11-19T10:07:39;100533.00;;;13.60
5571;BMP180;2808;51.240;6.794;2023-11-19T10:10:15;100527.00;;;13.60
5571;BMP180;2808;51.240;6.794;2023-11-19T10:12:47;100528.00;;;13.60
5571;BMP180;2808;51.240;6.794;2023-11-19T10:15:25;100539.00;;;13.70
5571;BMP180;2808;51.240;6.794;2023-11-19T10:17:57;100519.00;;;13.60
5571;BMP180;2808;51.240;6.794;2023-11-19T10:20:43;100520.00;;;13.60
5571;BMP180;2808;51.240;6.794;2023-11-19T10:23:23;100533.00;;;13.60
5571;BMP180;2808;51.240;6.794;2023-11-19T10:26:06;100520.00;;;13.50
5571;BMP180;2808;51.240;6.794;2023-11-19T10:28:50;100525.00;;;13.60
5571;BMP180;2808;51.240;6.794;2023-11-19T10:31:20;100513.00;;;13.70
5571;BMP180;2808;51.240;6.794;2023-11-19T10:33:57;100527.00;;;13.70
5571;BMP180;2808;51.240;6.794;2023-11-19T10:36:38;100524.00;;;13.70
5571;BMP180;2808;51.240;6.794;2023-11-19T10:39:12;100525.00;;;13.80
5571;BMP180;2808;51.240;6.794;2023-11-19T10:41:44;100519.00;;;13.80
5571;BMP180;2808;51.240;6.794;2023-11-19T10:44:31;100531.00;;;13.90
5571;BMP180;2808;51.240;6.794;2023-11-19T10:47:11;100523.00;;;14.00
5571;BMP180;2808;51.240;6.794;2023-11-19T10:49:43;100517.00;;;14.00
5571;BMP180;2808;51.240;6.794;2023-11-19T10:52:17;100527.00;;;14.00
5571;BMP180;2808;51.240;6.794;2023-11-19T10:54:50;100523.00;;;13.90
5571;BMP180;2808;51.240;6.794;2023-11-19T10:57:25;100515.00;;;13.90
5571;BMP180;2808;51.240;6.794;2023-11-19T11:00:00;100512.00;;;13.90
5571;BMP180;2808;51.240;6.794;2023-11-19T11:02:43;100511.00;;;13.80
5571;BMP180;2808;51.240;6.794;2023-11-19T11:05:18;100512.00;;;13.80
5571;BMP180;2808;51.240;6.794;2023-11-19T11:07:46;100517.00;;;13.90
5571;BMP180;2808;51.240;6.794;2023-11-19T11:10:21;100495.00;;;14.00
5571;BMP180;2808;51.240;6.794;2023-11-19T11:12:59;100512.00;;;14.10
5571;BMP180;2808;51.240;6.794;2023-11-19T11:15:35;100502.00;;;14.30
5571;BMP180;2808;51.240;6.794;2023-11-19T11:18:03;100488.00;;;14.30
5571;BMP180;2808;51.240;6.794;2023-11-19T11:20:36;100501.00;;;14.40
5571;BMP180;2808;51.240;6.794;2023-11-19T11:23:27;100511.00;;;14.50
5571;BMP180;2808;51.240;6.794;2023-11-19T11:26:20;100508.00;;;14.60
5571;BMP180;2808;51.240;6.794;2023-11-19T11:29:03;100497.00;;;14.70
5571;BMP180;2808;51.240;6.794;2023-11-19T11:31:52;100494.00;;;14.70
5571;BMP180;2808;51.240;6.794;2023-11-19T11:37:36;100487.00;;;14.50
5571;BMP180;2808;51.240;6.794;2023-11-19T11:40:15;100500.00;;;14.40
5571;BMP180;2808;51.240;6.794;2023-11-19T11:42:46;100481.00;;;14.40
5571;BMP180;2808;51.240;6.794;2023-11-19T11:45:36;100484.00;;;14.20
5571;BMP180;2808;51.240;6.794;2023-11-19T11:48:23;100482.00;;;14.00
5571;BMP180;2808;51.240;6.794;2023-11-19T11:50:56;100478.00;;;13.90
5571;BMP180;2808;51.240;6.794;2023-11-19T11:53:23;100478.00;;;13.90
5571;BMP180;2808;51.240;6.794;2023-11-19T11:55:55;100475.00;;;13.90
5571;BMP180;2808;51.240;6.794;2023-11-19T11:58:30;100466.00;;;13.80
5571;BMP180;2808;51.240;6.794;2023-11-19T12:01:07;100477.00;;;13.80
5571;BMP180;2808;51.240;6.794;2023-11-19T12:03:38;100476.00;;;13.80
5571;BMP180;2808;51.240;6.794;2023-11-19T12:06:11;100469.00;;;13.90
5571;BMP180;2808;51.240;6.794;2023-11-19T12:08:42;100476.00;;;13.90
5571;BMP180;2808;51.240;6.794;2023-11-19T12:11:12;100471.00;;;14.00
5571;BMP180;2808;51.240;6.794;2023-11-19T12:13:54;100476.00;;;14.00
5571;BMP180;2808;51.240;6.794;2023-11-19T12:16:27;100467.00;;;14.20
5571;BMP180;2808;51.240;6.794;2023-11-19T12:18:57;100448.00;;;14.30
5571;BMP180;2808;51.240;6.794;2023-11-19T12:21:35;100439.00;;;14.30
5571;BMP180;2808;51.240;6.794;2023-11-19T12:24:04;100449.00;;;14.30
5571;BMP180;2808;51.240;6.794;2023-11-19T12:26:42;100449.00;;;14.40
5571;BMP180;2808;51.240;6.794;2023-11-19T12:29:14;100459.00;;;14.30
5571;BMP180;2808;51.240;6.794;2023-11-19T12:31:55;100458.00;;;14.20
5571;BMP180;2808;51.240;6.794;2023-11-19T12:34:27;100454.00;;;14.20
5571;BMP180;2808;51.240;6.794;2023-11-19T12:36:55;100445.00;;;14.20
5571;BMP180;2808;51.240;6.794;2023-11-19T12:39:24;100445.00;;;14.10
5571;BMP180;2808;51.240;6.794;2023-11-19T12:41:54;100459.00;;;13.90
5571;BMP180;2808;51.240;6.794;2023-11-19T12:44:25;100462.00;;;13.80
5571;BMP180;2808;51.240;6.794;2023-11-19T12:47:03;100443.00;;;13.70
5571;BMP180;2808;51.240;6.794;2023-11-19T12:49:34;100439.00;;;13.60
5571;BMP180;2808;51.240;6.794;2023-11-19T12:52:12;100449.00;;;13.60
5571;BMP180;2808;51.240;6.794;2023-11-19T12:54:43;100457.00;;;13.60
5571;BMP180;2808;51.240;6.794;2023-11-19T12:57:13;100446.00;;;13.60
5571;BMP180;2808;51.240;6.794;2023-11-19T12:59:41;100445.00;;;13.60
5571;BMP180;2808;51.240;6.794;2023-11-19T13:02:28;100460.00;;;13.80
5571;BMP180;2808;51.240;6.794;2023-11-19T13:05:30;100455.00;;;13.90
5571;BMP180;2808;51.240;6.794;2023-11-19T13:08:07;100462.00;;;13.90
5571;BMP180;2808;51.240;6.794;2023-11-19T13:10:51;100466.00;;;14.00
5571;BMP180;2808;51.240;6.794;2023-11-19T13:13:26;100470.00;;;14.00
5571;BMP180;2808;51.240;6.794;2023-11-19T13:15:55;100472.00;;;13.90
5571;BMP180;2808;51.240;6.794;2023-11-19T13:18:36;100462.00;;;13.80
5571;BMP180;2808;51.240;6.794;2023-11-19T13:21:09;100473.00;;;13.80
5571;BMP180;2808;51.240;6.794;2023-11-19T13:23:39;100471.00;;;13.80
5571;BMP180;2808;51.240;6.794;2023-11-19T13:26:15;100479.00;;;13.90
5571;BMP180;2808;51.240;6.794;2023-11-19T13:28:47;100473.00;;;13.80
5571;BMP180;2808;51.240;6.794;2023-11-19T13:31:15;100474.00;;;13.70
5571;BMP180;2808;51.240;6.794;2023-11-19T13:33:43;100465.00;;;13.80
5571;BMP180;2808;51.240;6.794;2023-11-19T13:36:12;100471.00;;;13.70
5571;BMP180;2808;51.240;6.794;2023-11-19T13:38:40;100468.00;;;13.80
5571;BMP180;2808;51.240;6.794;2023-11-19T13:41:11;100471.00;;;13.80
5571;BMP180;2808;51.240;6.794;2023-11-19T13:43:42;100465.00;;;13.70
5571;BMP180;2808;51.240;6.794;2023-11-19T13:46:10;100460.00;;;13.70
5571;BMP180;2808;51.240;6.794;2023-11-19T13:48:51;100455.00;;;13.60
5571;BMP180;2808;51.240;6.794;2023-11-19T13:51:25;100459.00;;;13.60
5571;BMP180;2808;51.240;6.794;2023-11-19T13:53:52;100451.00;;;13.60
5571;BMP180;2808;51.240;6.794;2023-11-19T13:56:25;100458.00;;;13.50
5571;BMP180;2808;51.240;6.794;2023-11-19T13:58:57;100448.00;;;13.50
5571;BMP180;2808;51.240;6.794;2023-11-19T14:01:26;100440.00;;;13.40
5571;BMP180;2808;51.240;6.794;2023-11-19T14:04:00;100444.00;;;13.40
5571;BMP180;2808;51.240;6.794;2023-11-19T14:06:34;100441.00;;;13.40
5571;BMP180;2808;51.240;6.794;2023-11-19T14:09:09;100445.00;;;13.30
5571;BMP180;2808;51.240;6.794;2023-11-19T14:11:39;100431.00;;;13.30
5571;BMP180;2808;51.240;6.794;2023-11-19T14:14:09;100432.00;;;13.20
5571;BMP180;2808;51.240;6.794;2023-11-19T14:16:37;100439.00;;;13.20
5571;BMP180;2808;51.240;6.794;2023-11-19T14:19:08;100444.00;;;13.20
5571;BMP180;2808;51.240;6.794;2023-11-19T14:21:36;100442.00;;;13.20
5571;BMP180;2808;51.240;6.794;2023-11-19T14:24:07;100448.00;;;13.10
5571;BMP180;2808;51.240;6.794;2023-11-19T14:26:37;100448.00;;;13.20
5571;BMP180;2808;51.240;6.794;2023-11-19T14:29:04;100450.00;;;13.10
5571;BMP180;2808;51.240;6.794;2023-11-19T14:31:31;100457.00;;;13.00
5571;BMP180;2808;51.240;6.794;2023-11-19T14:33:59;100454.00;;;12.90
5571;BMP180;2808;51.240;6.794;2023-11-19T14:36:29;100452.00;;;12.90
5571;BMP180;2808;51.240;6.794;2023-11-19T14:38:58;100447.00;;;12.80
5571;BMP180;2808;51.240;6.794;2023-11-19T14:41:32;100455.00;;;12.70
5571;BMP180;2808;51.240;6.794;2023-11-19T14:43:59;100458.00;;;12.60
5571;BMP180;2808;51.240;6.794;2023-11-19T14:46:27;100450.00;;;12.50
5571;BMP180;2808;51.240;6.794;2023-11-19T14:48:55;100454.00;;;12.40
5571;BMP180;2808;51.240;6.794;2023-11-19T14:51:26;100454.00;;;12.40
5571;BMP180;2808;51.240;6.794;2023-11-19T14:53:54;100454.00;;;12.40
5571;BMP180;2808;51.240;6.794;2023-11-19T14:56:23;100465.00;;;12.30
5571;BMP180;2808;51.240;6.794;2023-11-19T14:58:54;100467.00;;;12.30
5571;BMP180;2808;51.240;6.794;2023-11-19T15:01:31;100459.00;;;12.30
5571;BMP180;2808;51.240;6.794;2023-11-19T15:04:02;100459.00;;;12.30
5571;BMP180;2808;51.240;6.794;2023-11-19T15:06:41;100451.00;;;12.30
5571;BMP180;2808;51.240;6.794;2023-11-19T15:09:09;100463.00;;;12.30
5571;BMP180;2808;51.240;6.794;2023-11-19T15:11:45;100461.00;;;12.30
5571;BMP180;2808;51.240;6.794;2023-11-19T15:14:15;100456.00;;;12.20
5571;BMP180;2808;51.240;6.794;2023-11-19T15:16:45;100439.00;;;12.20
5571;BMP180;2808;51.240;6.794;2023-11-19T15:19:30;100449.00;;;12.20
5571;BMP180;2808;51.240;6.794;2023-11-19T15:22:01;100448.00;;;12.20
5571;BMP180;2808;51.240;6.794;2023-11-19T15:24:31;100442.00;;;12.10
5571;BMP180;2808;51.240;6.794;2023-11-19T15:27:02;100445.00;;;12.10